sensor_id;sensor_type;location;lat;lon;timestamp;temperature;humidity
24252;DHT22;12380;51.118;4.176;2023-05-15T00:00:06;9.80;99.90
24252;DHT22;12380;51.118;4.176;2023-05-15T00:02:38;9.80;99.90
24252;DHT22;12380;51.118;4.176;2023-05-15T00:05:04;9.80;99.90
24252;DHT22;12380;51.118;4.176;2023-05-15T00:07:30;9.80;99.90
24252;DHT22;12380;51.118;4.176;2023-05-15T00:09:56;9.70;99.90
24252;DHT22;12380;51.118;4.176;2023-05-15T00:12:22;9.60;99.90
24252;DHT22;12380;51.118;4.176;2023-05-15T00:14:47;9.70;99.90
24252;DHT22;12380;51.118;4.176;2023-05-15T00:17:13;9.70;99.90
24252;DHT22;12380;51.118;4.176;2023-05-15T00:19:39;9.80;99.90
24252;DHT22;12380;51.118;4.176;2023-05-15T00:22:04;9.80;99.90
24252;DHT22;12380;51.118;4.176;2023-05-15T00:24:30;9.90;99.90
24252;DHT22;12380;51.118;4.176;2023-05-15T00:26:56;9.90;99.90
24252;DHT22;12380;51.118;4.176;2023-05-15T00:29:21;9.80;99.90
24252;DHT22;12380;51.118;4.176;2023-05-15T00:31:47;9.90;99.90
24252;DHT22;12380;51.118;4.176;2023-05-15T00:34:13;9.90;99.90
24252;DHT22;12380;51.118;4.176;2023-05-15T00:36:38;10.10;99.90
24252;DHT22;12380;51.118;4.176;2023-05-15T00:39:04;10.10;99.90
24252;DHT22;12380;51.118;4.176;2023-05-15T00:41:30;10.10;99.90
24252;DHT22;12380;51.118;4.176;2023-05-15T00:43:56;10.10;99.90
24252;DHT22;12380;51.118;4.176;2023-05-15T00:46:26;10.20;99.90
24252;DHT22;12380;51.118;4.176;2023-05-15T00:48:52;10.10;99.90
24252;DHT22;12380;51.118;4.176;2023-05-15T00:51:17;10.20;99.90
24252;DHT22;12380;51.118;4.176;2023-05-15T00:53:43;10.20;99.90
24252;DHT22;12380;51.118;4.176;2023-05-15T00:56:09;10.20;99.90
24252;DHT22;12380;51.118;4.176;2023-05-15T00:58:36;10.30;99.90
24252;DHT22;12380;51.118;4.176;2023-05-15T01:01:02;10.30;99.90
24252;DHT22;12380;51.118;4.176;2023-05-15T01:03:27;10.30;99.90
24252;DHT22;12380;51.118;4.176;2023-05-15T01:05:53;10.30;99.90
24252;DHT22;12380;51.118;4.176;2023-05-15T01:10:47;10.20;99.90
24252;DHT22;12380;51.118;4.176;2023-05-15T01:13:16;10.10;99.90
24252;DHT22;12380;51.118;4.176;2023-05-15T01:15:42;10.10;99.90
24252;DHT22;12380;51.118;4.176;2023-05-15T01:18:08;10.10;99.90
24252;DHT22;12380;51.118;4.176;2023-05-15T01:20:48;10.10;99.90
24252;DHT22;12380;51.118;4.176;2023-05-15T01:23:17;10.00;99.90
24252;DHT22;12380;51.118;4.176;2023-05-15T01:28:33;9.90;99.90
24252;DHT22;12380;51.118;4.176;2023-05-15T01:31:01;9.90;99.90
24252;DHT22;12380;51.118;4.176;2023-05-15T01:33:34;9.80;99.90
24252;DHT22;12380;51.118;4.176;2023-05-15T01:36:07;9.80;99.90
24252;DHT22;12380;51.118;4.176;2023-05-15T01:46:28;9.70;99.90
24252;DHT22;12380;51.118;4.176;2023-05-15T01:48:55;9.70;99.90
24252;DHT22;12380;51.118;4.176;2023-05-15T01:51:22;9.70;99.90
24252;DHT22;12380;51.118;4.176;2023-05-15T01:53:48;9.70;99.90
24252;DHT22;12380;51.118;4.176;2023-05-15T01:56:17;9.60;99.90
24252;DHT22;12380;51.118;4.176;2023-05-15T01:58:44;9.70;99.90
24252;DHT22;12380;51.118;4.176;2023-05-15T02:01:11;9.50;99.90
24252;DHT22;12380;51.118;4.176;2023-05-15T02:03:37;9.60;99.90
24252;DHT22;12380;51.118;4.176;2023-05-15T02:06:04;9.50;99.90
24252;DHT22;12380;51.118;4.176;2023-05-15T02:08:33;9.60;99.90
24252;DHT22;12380;51.118;4.176;2023-05-15T02:10:59;9.50;99.90
24252;DHT22;12380;51.118;4.176;2023-05-15T02:13:25;9.50;99.90
24252;DHT22;12380;51.118;4.176;2023-05-15T02:15:54;9.40;99.90
24252;DHT22;12380;51.118;4.176;2023-05-15T02:18:22;9.50;99.90
24252;DHT22;12380;51.118;4.176;2023-05-15T02:20:48;9.50;99.90
24252;DHT22;12380;51.118;4.176;2023-05-15T02:23:13;9.50;99.90
24252;DHT22;12380;51.118;4.176;2023-05-15T02:25:51;9.50;99.90
24252;DHT22;12380;51.118;4.176;2023-05-15T02:28:23;9.50;99.90
24252;DHT22;12380;51.118;4.176;2023-05-15T02:30:57;9.40;99.90
24252;DHT22;12380;51.118;4.176;2023-05-15T02:33:33;9.40;99.90
24252;DHT22;12380;51.118;4.176;2023-05-15T02:36:10;9.40;99.90
24252;DHT22;12380;51.118;4.176;2023-05-15T02:38:45;9.40;99.90
24252;DHT22;12380;51.118;4.176;2023-05-15T02:41:11;9.40;99.90
24252;DHT22;12380;51.118;4.176;2023-05-15T02:43:38;9.40;99.90
24252;DHT22;12380;51.118;4.176;2023-05-15T02:46:04;9.50;99.90
24252;DHT22;12380;51.118;4.176;2023-05-15T02:48:32;9.50;99.90
24252;DHT22;12380;51.118;4.176;2023-05-15T02:50:58;9.50;99.90
24252;DHT22;12380;51.118;4.176;2023-05-15T02:53:24;9.50;99.90
24252;DHT22;12380;51.118;4.176;2023-05-15T02:55:50;9.50;99.90
24252;DHT22;12380;51.118;4.176;2023-05-15T02:58:16;9.50;99.90
24252;DHT22;12380;51.118;4.176;2023-05-15T03:00:43;9.50;99.90
24252;DHT22;12380;51.118;4.176;2023-05-15T03:03:09;9.60;99.90
24252;DHT22;12380;51.118;4.176;2023-05-15T03:05:35;9.60;99.90
24252;DHT22;12380;51.118;4.176;2023-05-15T03:08:00;9.60;99.90
24252;DHT22;12380;51.118;4.176;2023-05-15T03:10:26;9.60;99.90
24252;DHT22;12380;51.118;4.176;2023-05-15T03:12:51;9.70;99.90
24252;DHT22;12380;51.118;4.176;2023-05-15T03:15:17;9.50;99.90
24252;DHT22;12380;51.118;4.176;2023-05-15T03:17:43;9.60;99.90
24252;DHT22;12380;51.118;4.176;2023-05-15T03:20:09;9.40;99.90
24252;DHT22;12380;51.118;4.176;2023-05-15T03:22:35;9.40;99.90
24252;DHT22;12380;51.118;4.176;2023-05-15T03:25:03;9.40;99.90
24252;DHT22;12380;51.118;4.176;2023-05-15T03:27:29;9.50;99.90
24252;DHT22;12380;51.118;4.176;2023-05-15T03:29:57;9.50;99.90
24252;DHT22;12380;51.118;4.176;2023-05-15T03:32:22;9.70;99.90
24252;DHT22;12380;51.118;4.176;2023-05-15T03:34:48;9.70;99.90
24252;DHT22;12380;51.118;4.176;2023-05-15T03:37:13;9.70;99.90
24252;DHT22;12380;51.118;4.176;2023-05-15T03:39:39;9.80;99.90
24252;DHT22;12380;51.118;4.176;2023-05-15T03:42:04;9.70;99.90
24252;DHT22;12380;51.118;4.176;2023-05-15T03:44:30;9.90;99.90
24252;DHT22;12380;51.118;4.176;2023-05-15T03:46:58;9.80;99.90
24252;DHT22;12380;51.118;4.176;2023-05-15T03:49:23;9.90;99.90
24252;DHT22;12380;51.118;4.176;2023-05-15T03:51:51;9.90;99.90
24252;DHT22;12380;51.118;4.176;2023-05-15T03:54:17;9.90;99.90
24252;DHT22;12380;51.118;4.176;2023-05-15T03:56:42;9.90;99.90
24252;DHT22;12380;51.118;4.176;2023-05-15T03:59:08;9.90;99.90
24252;DHT22;12380;51.118;4.176;2023-05-15T04:01:34;9.80;99.90
24252;DHT22;12380;51.118;4.176;2023-05-15T04:03:59;9.90;99.90
24252;DHT22;12380;51.118;4.176;2023-05-15T04:06:25;9.90;99.90
24252;DHT22;12380;51.118;4.176;2023-05-15T04:08:53;9.80;99.90
24252;DHT22;12380;51.118;4.176;2023-05-15T04:11:18;9.80;99.90
24252;DHT22;12380;51.118;4.176;2023-05-15T04:13:46;9.90;99.90
24252;DHT22;12380;51.118;4.176;2023-05-15T04:16:11;10.00;99.90
24252;DHT22;12380;51.118;4.176;2023-05-15T04:18:37;10.00;99.90
24252;DHT22;12380;51.118;4.176;2023-05-15T04:21:02;9.80;99.90
24252;DHT22;12380;51.118;4.176;2023-05-15T04:23:28;9.90;99.90
24252;DHT22;12380;51.118;4.176;2023-05-15T04:25:53;9.90;99.90
24252;DHT22;12380;51.118;4.176;2023-05-15T04:28:19;9.80;99.90
24252;DHT22;12380;51.118;4.176;2023-05-15T04:30:46;9.80;99.90
24252;DHT22;12380;51.118;4.176;2023-05-15T04:33:11;9.80;99.90
24252;DHT22;12380;51.118;4.176;2023-05-15T04:35:37;9.90;99.90
24252;DHT22;12380;51.118;4.176;2023-05-15T04:38:02;9.80;99.90
24252;DHT22;12380;51.118;4.176;2023-05-15T04:40:28;9.70;99.90
24252;DHT22;12380;51.118;4.176;2023-05-15T04:42:54;9.80;99.90
24252;DHT22;12380;51.118;4.176;2023-05-15T04:45:19;9.80;99.90
24252;DHT22;12380;51.118;4.176;2023-05-15T04:47:45;9.80;99.90
24252;DHT22;12380;51.118;4.176;2023-05-15T04:50:11;9.70;99.90
24252;DHT22;12380;51.118;4.176;2023-05-15T04:52:36;9.80;99.90
24252;DHT22;12380;51.118;4.176;2023-05-15T04:55:02;9.80;99.90
24252;DHT22;12380;51.118;4.176;2023-05-15T04:57:28;9.80;99.90
24252;DHT22;12380;51.118;4.176;2023-05-15T04:59:54;9.70;99.90
24252;DHT22;12380;51.118;4.176;2023-05-15T05:02:20;9.80;99.90
24252;DHT22;12380;51.118;4.176;2023-05-15T05:04:49;9.90;99.90
24252;DHT22;12380;51.118;4.176;2023-05-15T05:07:15;10.10;99.90
24252;DHT22;12380;51.118;4.176;2023-05-15T05:09:40;10.00;99.90
24252;DHT22;12380;51.118;4.176;2023-05-15T05:12:06;10.00;99.90
24252;DHT22;12380;51.118;4.176;2023-05-15T05:14:32;10.00;99.90
24252;DHT22;12380;51.118;4.176;2023-05-15T05:16:58;10.00;99.90
24252;DHT22;12380;51.118;4.176;2023-05-15T05:19:23;10.00;99.90
24252;DHT22;12380;51.118;4.176;2023-05-15T05:21:50;10.10;99.90
24252;DHT22;12380;51.118;4.176;2023-05-15T05:24:16;10.00;99.90
24252;DHT22;12380;51.118;4.176;2023-05-15T05:26:44;10.00;99.90
24252;DHT22;12380;51.118;4.176;2023-05-15T05:29:10;10.10;99.90
24252;DHT22;12380;51.118;4.176;2023-05-15T05:31:38;10.40;99.90
24252;DHT22;12380;51.118;4.176;2023-05-15T05:34:03;10.30;99.90
24252;DHT22;12380;51.118;4.176;2023-05-15T05:36:29;10.30;99.90
24252;DHT22;12380;51.118;4.176;2023-05-15T05:38:57;10.30;99.90
24252;DHT22;12380;51.118;4.176;2023-05-15T05:41:25;10.20;99.90
24252;DHT22;12380;51.118;4.176;2023-05-15T05:43:51;10.40;99.90
24252;DHT22;12380;51.118;4.176;2023-05-15T05:46:17;10.30;99.90
24252;DHT22;12380;51.118;4.176;2023-05-15T05:48:43;10.30;99.90
24252;DHT22;12380;51.118;4.176;2023-05-15T05:51:09;10.20;99.90
24252;DHT22;12380;51.118;4.176;2023-05-15T05:53:34;10.20;99.90
24252;DHT22;12380;51.118;4.176;2023-05-15T05:56:00;10.40;99.90
24252;DHT22;12380;51.118;4.176;2023-05-15T05:58:26;10.50;99.90
24252;DHT22;12380;51.118;4.176;2023-05-15T06:00:52;10.70;99.90
24252;DHT22;12380;51.118;4.176;2023-05-15T06:03:17;10.70;99.90
24252;DHT22;12380;51.118;4.176;2023-05-15T06:05:43;10.80;99.90
24252;DHT22;12380;51.118;4.176;2023-05-15T06:08:09;10.60;99.90
24252;DHT22;12380;51.118;4.176;2023-05-15T06:10:37;10.60;99.90
24252;DHT22;12380;51.118;4.176;2023-05-15T06:13:02;10.60;99.90
24252;DHT22;12380;51.118;4.176;2023-05-15T06:15:28;10.50;99.90
24252;DHT22;12380;51.118;4.176;2023-05-15T06:17:58;10.50;99.90
24252;DHT22;12380;51.118;4.176;2023-05-15T06:20:23;10.50;99.90
24252;DHT22;12380;51.118;4.176;2023-05-15T06:22:49;10.60;99.90
24252;DHT22;12380;51.118;4.176;2023-05-15T06:25:15;10.40;99.90
24252;DHT22;12380;51.118;4.176;2023-05-15T06:27:40;10.50;99.90
24252;DHT22;12380;51.118;4.176;2023-05-15T06:30:09;10.60;99.90
24252;DHT22;12380;51.118;4.176;2023-05-15T06:32:34;10.40;99.90
24252;DHT22;12380;51.118;4.176;2023-05-15T06:35:00;10.50;99.90
24252;DHT22;12380;51.118;4.176;2023-05-15T06:37:29;10.60;99.90
24252;DHT22;12380;51.118;4.176;2023-05-15T06:39:54;10.60;99.90
24252;DHT22;12380;51.118;4.176;2023-05-15T06:42:21;10.80;99.90
24252;DHT22;12380;51.118;4.176;2023-05-15T06:44:49;11.00;99.90
24252;DHT22;12380;51.118;4.176;2023-05-15T06:47:17;10.80;99.90
24252;DHT22;12380;51.118;4.176;2023-05-15T06:49:42;10.90;99.90
24252;DHT22;12380;51.118;4.176;2023-05-15T06:52:10;10.90;99.90
24252;DHT22;12380;51.118;4.176;2023-05-15T06:54:36;10.80;99.90
24252;DHT22;12380;51.118;4.176;2023-05-15T06:57:01;10.90;99.90
24252;DHT22;12380;51.118;4.176;2023-05-15T06:59:27;11.00;99.90
24252;DHT22;12380;51.118;4.176;2023-05-15T07:01:58;11.20;99.90
24252;DHT22;12380;51.118;4.176;2023-05-15T07:04:24;11.40;99.90
24252;DHT22;12380;51.118;4.176;2023-05-15T07:06:50;11.20;99.90
24252;DHT22;12380;51.118;4.176;2023-05-15T07:09:21;11.10;99.90
24252;DHT22;12380;51.118;4.176;2023-05-15T07:11:46;11.10;99.90
24252;DHT22;12380;51.118;4.176;2023-05-15T07:14:12;11.10;99.90
24252;DHT22;12380;51.118;4.176;2023-05-15T07:16:38;11.20;99.90
24252;DHT22;12380;51.118;4.176;2023-05-15T07:19:04;11.40;99.90
24252;DHT22;12380;51.118;4.176;2023-05-15T07:21:32;11.70;99.90
24252;DHT22;12380;51.118;4.176;2023-05-15T07:23:57;11.50;99.90
24252;DHT22;12380;51.118;4.176;2023-05-15T07:26:23;11.60;99.90
24252;DHT22;12380;51.118;4.176;2023-05-15T07:28:48;11.90;99.90
24252;DHT22;12380;51.118;4.176;2023-05-15T07:31:16;11.80;99.90
24252;DHT22;12380;51.118;4.176;2023-05-15T07:33:42;12.00;99.90
24252;DHT22;12380;51.118;4.176;2023-05-15T07:36:07;12.10;99.90
24252;DHT22;12380;51.118;4.176;2023-05-15T07:38:33;12.20;99.90
24252;DHT22;12380;51.118;4.176;2023-05-15T07:40:59;12.40;99.90
24252;DHT22;12380;51.118;4.176;2023-05-15T07:43:26;12.50;99.90
24252;DHT22;12380;51.118;4.176;2023-05-15T07:45:52;12.10;99.90
24252;DHT22;12380;51.118;4.176;2023-05-15T07:48:18;12.30;99.90
24252;DHT22;12380;51.118;4.176;2023-05-15T07:50:45;12.20;99.90
24252;DHT22;12380;51.118;4.176;2023-05-15T07:53:11;12.20;99.90
24252;DHT22;12380;51.118;4.176;2023-05-15T07:55:37;12.50;99.90
24252;DHT22;12380;51.118;4.176;2023-05-15T07:58:02;12.80;99.90
24252;DHT22;12380;51.118;4.176;2023-05-15T08:00:28;13.10;99.90
24252;DHT22;12380;51.118;4.176;2023-05-15T08:02:53;13.30;99.90
24252;DHT22;12380;51.118;4.176;2023-05-15T08:05:19;13.30;99.90
24252;DHT22;12380;51.118;4.176;2023-05-15T08:07:45;13.30;99.90
24252;DHT22;12380;51.118;4.176;2023-05-15T08:10:10;13.20;99.90
24252;DHT22;12380;51.118;4.176;2023-05-15T08:12:36;13.50;99.90
24252;DHT22;12380;51.118;4.176;2023-05-15T08:15:02;13.90;99.90
24252;DHT22;12380;51.118;4.176;2023-05-15T08:17:27;14.30;99.90
24252;DHT22;12380;51.118;4.176;2023-05-15T08:19:54;14.30;99.90
24252;DHT22;12380;51.118;4.176;2023-05-15T08:22:20;14.70;99.90
24252;DHT22;12380;51.118;4.176;2023-05-15T08:24:45;14.70;99.90
24252;DHT22;12380;51.118;4.176;2023-05-15T08:27:11;14.50;99.90
24252;DHT22;12380;51.118;4.176;2023-05-15T08:29:36;14.40;99.90
24252;DHT22;12380;51.118;4.176;2023-05-15T08:32:02;14.50;99.90
24252;DHT22;12380;51.118;4.176;2023-05-15T08:34:28;14.50;99.90
24252;DHT22;12380;51.118;4.176;2023-05-15T08:36:54;14.40;99.90
24252;DHT22;12380;51.118;4.176;2023-05-15T08:39:20;14.10;99.90
24252;DHT22;12380;51.118;4.176;2023-05-15T08:41:48;14.00;99.90
24252;DHT22;12380;51.118;4.176;2023-05-15T08:44:15;13.90;99.90
24252;DHT22;12380;51.118;4.176;2023-05-15T08:46:41;13.90;99.90
24252;DHT22;12380;51.118;4.176;2023-05-15T08:49:13;13.90;99.90
24252;DHT22;12380;51.118;4.176;2023-05-15T08:51:41;13.90;99.90
24252;DHT22;12380;51.118;4.176;2023-05-15T08:54:07;13.90;99.90
24252;DHT22;12380;51.118;4.176;2023-05-15T08:56:32;14.00;99.90
24252;DHT22;12380;51.118;4.176;2023-05-15T08:58:58;13.90;99.90
24252;DHT22;12380;51.118;4.176;2023-05-15T09:01:24;13.90;99.90
24252;DHT22;12380;51.118;4.176;2023-05-15T09:03:52;13.70;99.90
24252;DHT22;12380;51.118;4.176;2023-05-15T09:06:20;13.70;99.90
24252;DHT22;12380;51.118;4.176;2023-05-15T09:08:46;13.70;99.90
24252;DHT22;12380;51.118;4.176;2023-05-15T09:11:12;13.50;99.90
24252;DHT22;12380;51.118;4.176;2023-05-15T09:13:38;13.20;99.90
24252;DHT22;12380;51.118;4.176;2023-05-15T09:16:04;13.50;99.90
24252;DHT22;12380;51.118;4.176;2023-05-15T09:18:30;13.70;99.90
24252;DHT22;12380;51.118;4.176;2023-05-15T09:21:02;13.60;99.90
24252;DHT22;12380;51.118;4.176;2023-05-15T09:23:42;13.70;99.90
24252;DHT22;12380;51.118;4.176;2023-05-15T09:26:10;13.60;99.90
24252;DHT22;12380;51.118;4.176;2023-05-15T09:28:36;13.90;99.90
24252;DHT22;12380;51.118;4.176;2023-05-15T09:31:04;14.10;99.90
24252;DHT22;12380;51.118;4.176;2023-05-15T09:33:31;14.20;99.90
24252;DHT22;12380;51.118;4.176;2023-05-15T09:35:57;14.50;99.90
24252;DHT22;12380;51.118;4.176;2023-05-15T09:38:25;14.60;99.90
24252;DHT22;12380;51.118;4.176;2023-05-15T09:40:50;14.40;99.90
24252;DHT22;12380;51.118;4.176;2023-05-15T09:43:27;14.30;99.90
24252;DHT22;12380;51.118;4.176;2023-05-15T09:45:53;14.40;99.90
24252;DHT22;12380;51.118;4.176;2023-05-15T09:48:19;14.20;99.90
24252;DHT22;12380;51.118;4.176;2023-05-15T09:50:45;14.10;99.90
24252;DHT22;12380;51.118;4.176;2023-05-15T09:53:11;14.30;99.90
24252;DHT22;12380;51.118;4.176;2023-05-15T09:55:37;14.30;99.90
24252;DHT22;12380;51.118;4.176;2023-05-15T09:58:10;14.20;99.90
24252;DHT22;12380;51.118;4.176;2023-05-15T10:00:36;14.30;99.90
24252;DHT22;12380;51.118;4.176;2023-05-15T10:03:04;14.40;99.90
24252;DHT22;12380;51.118;4.176;2023-05-15T10:05:31;14.30;99.90
24252;DHT22;12380;51.118;4.176;2023-05-15T10:07:57;14.40;99.90
24252;DHT22;12380;51.118;4.176;2023-05-15T10:10:23;14.40;99.90
24252;DHT22;12380;51.118;4.176;2023-05-15T10:12:51;14.50;99.90
24252;DHT22;12380;51.118;4.176;2023-05-15T10:15:17;14.50;99.90
24252;DHT22;12380;51.118;4.176;2023-05-15T10:17:44;14.60;99.90
24252;DHT22;12380;51.118;4.176;2023-05-15T10:20:11;14.70;99.90
24252;DHT22;12380;51.118;4.176;2023-05-15T10:22:39;14.70;99.90
24252;DHT22;12380;51.118;4.176;2023-05-15T10:27:31;14.80;99.90
24252;DHT22;12380;51.118;4.176;2023-05-15T10:30:00;14.60;99.90
24252;DHT22;12380;51.118;4.176;2023-05-15T10:32:28;14.40;99.90
24252;DHT22;12380;51.118;4.176;2023-05-15T10:34:54;14.60;99.90
24252;DHT22;12380;51.118;4.176;2023-05-15T10:37:20;14.60;99.90
24252;DHT22;12380;51.118;4.176;2023-05-15T10:39:46;14.70;99.90
24252;DHT22;12380;51.118;4.176;2023-05-15T10:42:11;14.70;99.90
24252;DHT22;12380;51.118;4.176;2023-05-15T10:44:37;14.80;99.90
24252;DHT22;12380;51.118;4.176;2023-05-15T10:47:03;14.90;99.90
24252;DHT22;12380;51.118;4.176;2023-05-15T10:49:29;14.80;99.90
24252;DHT22;12380;51.118;4.176;2023-05-15T10:51:55;14.50;99.90
24252;DHT22;12380;51.118;4.176;2023-05-15T10:54:23;14.60;99.90
24252;DHT22;12380;51.118;4.176;2023-05-15T10:56:49;14.50;99.90
24252;DHT22;12380;51.118;4.176;2023-05-15T10:59:14;14.60;99.90
24252;DHT22;12380;51.118;4.176;2023-05-15T11:01:40;14.30;99.90
24252;DHT22;12380;51.118;4.176;2023-05-15T11:04:24;14.40;99.90
24252;DHT22;12380;51.118;4.176;2023-05-15T11:06:50;14.50;99.90
24252;DHT22;12380;51.118;4.176;2023-05-15T11:09:35;14.60;99.90
24252;DHT22;12380;51.118;4.176;2023-05-15T11:12:02;14.70;99.90
24252;DHT22;12380;51.118;4.176;2023-05-15T11:14:29;14.70;99.90
24252;DHT22;12380;51.118;4.176;2023-05-15T11:16:57;14.60;99.90
24252;DHT22;12380;51.118;4.176;2023-05-15T11:19:33;14.70;99.90
24252;DHT22;12380;51.118;4.176;2023-05-15T11:22:00;14.80;99.90
24252;DHT22;12380;51.118;4.176;2023-05-15T11:27:00;14.70;99.90
24252;DHT22;12380;51.118;4.176;2023-05-15T11:29:25;14.50;99.90
24252;DHT22;12380;51.118;4.176;2023-05-15T11:31:51;14.40;99.90
24252;DHT22;12380;51.118;4.176;2023-05-15T11:34:31;14.10;99.90
24252;DHT22;12380;51.118;4.176;2023-05-15T11:36:57;14.10;99.90
24252;DHT22;12380;51.118;4.176;2023-05-15T11:39:24;14.20;99.90
24252;DHT22;12380;51.118;4.176;2023-05-15T11:41:50;14.20;99.90
24252;DHT22;12380;51.118;4.176;2023-05-15T11:44:22;14.20;99.90
24252;DHT22;12380;51.118;4.176;2023-05-15T11:46:51;14.10;99.90
24252;DHT22;12380;51.118;4.176;2023-05-15T11:49:18;14.10;99.90
24252;DHT22;12380;51.118;4.176;2023-05-15T11:51:43;14.10;99.90
24252;DHT22;12380;51.118;4.176;2023-05-15T11:54:09;14.20;99.90
24252;DHT22;12380;51.118;4.176;2023-05-15T11:56:41;13.90;99.90
24252;DHT22;12380;51.118;4.176;2023-05-15T11:59:08;13.80;99.90
24252;DHT22;12380;51.118;4.176;2023-05-15T12:01:40;13.80;99.90
24252;DHT22;12380;51.118;4.176;2023-05-15T12:04:15;13.70;99.90
24252;DHT22;12380;51.118;4.176;2023-05-15T12:06:41;13.60;99.90
24252;DHT22;12380;51.118;4.176;2023-05-15T12:09:12;13.50;99.90
24252;DHT22;12380;51.118;4.176;2023-05-15T12:11:41;13.30;99.90
24252;DHT22;12380;51.118;4.176;2023-05-15T12:14:11;13.20;99.90
24252;DHT22;12380;51.118;4.176;2023-05-15T12:16:37;13.20;99.90
24252;DHT22;12380;51.118;4.176;2023-05-15T12:19:03;13.00;99.90
24252;DHT22;12380;51.118;4.176;2023-05-15T12:21:29;13.10;99.90
24252;DHT22;12380;51.118;4.176;2023-05-15T12:23:55;13.10;99.90
24252;DHT22;12380;51.118;4.176;2023-05-15T12:26:20;12.90;99.90
24252;DHT22;12380;51.118;4.176;2023-05-15T12:28:47;13.00;99.90
24252;DHT22;12380;51.118;4.176;2023-05-15T12:31:13;12.80;99.90
24252;DHT22;12380;51.118;4.176;2023-05-15T12:33:39;12.80;99.90
24252;DHT22;12380;51.118;4.176;2023-05-15T12:36:06;12.80;99.90
24252;DHT22;12380;51.118;4.176;2023-05-15T12:38:32;12.90;99.90
24252;DHT22;12380;51.118;4.176;2023-05-15T12:40:59;12.90;99.90
24252;DHT22;12380;51.118;4.176;2023-05-15T12:43:27;12.90;99.90
24252;DHT22;12380;51.118;4.176;2023-05-15T12:45:55;13.00;99.90
24252;DHT22;12380;51.118;4.176;2023-05-15T12:48:21;12.90;99.90
24252;DHT22;12380;51.118;4.176;2023-05-15T12:50:47;12.90;99.90
24252;DHT22;12380;51.118;4.176;2023-05-15T12:53:13;12.80;99.90
24252;DHT22;12380;51.118;4.176;2023-05-15T12:55:45;12.90;99.90
24252;DHT22;12380;51.118;4.176;2023-05-15T12:58:11;13.00;99.90
24252;DHT22;12380;51.118;4.176;2023-05-15T13:00:38;13.00;99.90
24252;DHT22;12380;51.118;4.176;2023-05-15T13:03:04;12.70;99.90
24252;DHT22;12380;51.118;4.176;2023-05-15T13:05:31;12.70;99.90
24252;DHT22;12380;51.118;4.176;2023-05-15T13:07:57;12.70;99.90
24252;DHT22;12380;51.118;4.176;2023-05-15T13:10:23;12.70;99.90
24252;DHT22;12380;51.118;4.176;2023-05-15T13:12:49;13.00;99.90
24252;DHT22;12380;51.118;4.176;2023-05-15T13:15:31;13.10;99.90
24252;DHT22;12380;51.118;4.176;2023-05-15T13:18:09;13.00;99.90
24252;DHT22;12380;51.118;4.176;2023-05-15T13:20:37;12.90;99.90
24252;DHT22;12380;51.118;4.176;2023-05-15T13:23:03;12.80;99.90
24252;DHT22;12380;51.118;4.176;2023-05-15T13:25:29;13.00;99.90
24252;DHT22;12380;51.118;4.176;2023-05-15T13:27:58;12.80;99.90
24252;DHT22;12380;51.118;4.176;2023-05-15T13:30:24;12.80;99.90
24252;DHT22;12380;51.118;4.176;2023-05-15T13:32:50;12.50;99.90
24252;DHT22;12380;51.118;4.176;2023-05-15T13:35:15;12.50;99.90
24252;DHT22;12380;51.118;4.176;2023-05-15T13:37:41;12.50;99.90
24252;DHT22;12380;51.118;4.176;2023-05-15T13:40:08;12.60;99.90
24252;DHT22;12380;51.118;4.176;2023-05-15T13:42:34;12.80;99.90
24252;DHT22;12380;51.118;4.176;2023-05-15T13:45:01;12.90;99.90
24252;DHT22;12380;51.118;4.176;2023-05-15T13:47:26;12.90;99.90
24252;DHT22;12380;51.118;4.176;2023-05-15T13:49:52;12.70;99.90
24252;DHT22;12380;51.118;4.176;2023-05-15T13:52:17;12.70;99.90
24252;DHT22;12380;51.118;4.176;2023-05-15T13:54:43;12.60;99.90
24252;DHT22;12380;51.118;4.176;2023-05-15T13:57:09;12.60;99.90
24252;DHT22;12380;51.118;4.176;2023-05-15T13:59:34;12.60;99.90
24252;DHT22;12380;51.118;4.176;2023-05-15T14:02:00;12.60;99.90
24252;DHT22;12380;51.118;4.176;2023-05-15T14:04:26;12.60;99.90
24252;DHT22;12380;51.118;4.176;2023-05-15T14:06:51;12.60;99.90
24252;DHT22;12380;51.118;4.176;2023-05-15T14:09:17;12.90;99.90
24252;DHT22;12380;51.118;4.176;2023-05-15T14:11:42;13.10;99.90
24252;DHT22;12380;51.118;4.176;2023-05-15T14:14:08;13.30;99.90
24252;DHT22;12380;51.118;4.176;2023-05-15T14:16:34;13.40;99.90
24252;DHT22;12380;51.118;4.176;2023-05-15T14:18:59;13.60;99.90
24252;DHT22;12380;51.118;4.176;2023-05-15T14:21:25;13.40;99.90
24252;DHT22;12380;51.118;4.176;2023-05-15T14:23:50;13.30;99.90
24252;DHT22;12380;51.118;4.176;2023-05-15T14:26:16;13.30;99.90
24252;DHT22;12380;51.118;4.176;2023-05-15T14:28:41;13.20;99.90
24252;DHT22;12380;51.118;4.176;2023-05-15T14:31:07;13.30;99.90
24252;DHT22;12380;51.118;4.176;2023-05-15T14:33:33;13.20;99.90
24252;DHT22;12380;51.118;4.176;2023-05-15T14:35:58;13.10;99.90
24252;DHT22;12380;51.118;4.176;2023-05-15T14:38:25;13.00;99.90
24252;DHT22;12380;51.118;4.176;2023-05-15T14:40:50;13.10;99.90
24252;DHT22;12380;51.118;4.176;2023-05-15T14:43:16;12.90;99.90
24252;DHT22;12380;51.118;4.176;2023-05-15T14:45:42;12.60;99.90
24252;DHT22;12380;51.118;4.176;2023-05-15T14:48:07;12.60;99.90
24252;DHT22;12380;51.118;4.176;2023-05-15T14:50:33;12.70;99.90
24252;DHT22;12380;51.118;4.176;2023-05-15T14:52:59;12.70;99.90
24252;DHT22;12380;51.118;4.176;2023-05-15T14:55:25;12.90;99.90
24252;DHT22;12380;51.118;4.176;2023-05-15T14:57:50;12.90;99.90
24252;DHT22;12380;51.118;4.176;2023-05-15T15:00:16;13.00;99.90
24252;DHT22;12380;51.118;4.176;2023-05-15T15:02:42;13.10;99.90
24252;DHT22;12380;51.118;4.176;2023-05-15T15:05:08;13.00;99.90
24252;DHT22;12380;51.118;4.176;2023-05-15T15:10:18;13.10;99.90
24252;DHT22;12380;51.118;4.176;2023-05-15T15:12:44;13.20;99.90
24252;DHT22;12380;51.118;4.176;2023-05-15T15:15:10;13.20;99.90
24252;DHT22;12380;51.118;4.176;2023-05-15T15:17:36;13.10;99.90
24252;DHT22;12380;51.118;4.176;2023-05-15T15:20:01;13.10;99.90
24252;DHT22;12380;51.118;4.176;2023-05-15T15:22:29;13.30;99.90
24252;DHT22;12380;51.118;4.176;2023-05-15T15:24:57;13.20;99.90
24252;DHT22;12380;51.118;4.176;2023-05-15T15:27:23;13.30;99.90
24252;DHT22;12380;51.118;4.176;2023-05-15T15:29:48;13.20;99.90
24252;DHT22;12380;51.118;4.176;2023-05-15T15:32:16;13.40;99.90
24252;DHT22;12380;51.118;4.176;2023-05-15T15:34:41;13.30;99.90
24252;DHT22;12380;51.118;4.176;2023-05-15T15:37:08;13.30;99.90
24252;DHT22;12380;51.118;4.176;2023-05-15T15:39:33;13.40;99.90
24252;DHT22;12380;51.118;4.176;2023-05-15T15:41:59;13.10;99.90
24252;DHT22;12380;51.118;4.176;2023-05-15T15:44:24;12.80;99.90
24252;DHT22;12380;51.118;4.176;2023-05-15T15:46:50;12.70;99.90
24252;DHT22;12380;51.118;4.176;2023-05-15T15:49:15;12.90;99.90
24252;DHT22;12380;51.118;4.176;2023-05-15T15:51:41;12.60;99.90